sensor_id;sensor_type;location;lat;lon;timestamp;temperature;humidity
65598;SHT31;52267;51.984;20.956;2022-08-19T00:00:36;20.48;80.54
65598;SHT31;52267;51.984;20.956;2022-08-19T00:03:05;20.48;80.38
65598;SHT31;52267;51.984;20.956;2022-08-19T00:05:33;20.46;80.41
65598;SHT31;52267;51.984;20.956;2022-08-19T00:08:00;20.46;80.45
65598;SHT31;52267;51.984;20.956;2022-08-19T00:10:27;20.40;80.50
65598;SHT31;52267;51.984;20.956;2022-08-19T00:12:55;20.35;80.54
65598;SHT31;52267;51.984;20.956;2022-08-19T00:15:22;20.29;80.62
65598;SHT31;52267;51.984;20.956;2022-08-19T00:17:49;20.23;80.78
65598;SHT31;52267;51.984;20.956;2022-08-19T00:20:18;20.17;80.96
65598;SHT31;52267;51.984;20.956;2022-08-19T00:22:48;20.13;81.02
65598;SHT31;52267;51.984;20.956;2022-08-19T00:25:15;20.09;81.03
65598;SHT31;52267;51.984;20.956;2022-08-19T00:27:43;20.01;81.28
65598;SHT31;52267;51.984;20.956;2022-08-19T00:30:10;19.95;81.44
65598;SHT31;52267;51.984;20.956;2022-08-19T00:32:37;19.93;81.42
65598;SHT31;52267;51.984;20.956;2022-08-19T00:35:05;19.91;81.37
65598;SHT31;52267;51.984;20.956;2022-08-19T00:37:32;19.86;81.40
65598;SHT31;52267;51.984;20.956;2022-08-19T00:40:01;19.81;81.52
65598;SHT31;52267;51.984;20.956;2022-08-19T00:42:32;19.75;81.61
65598;SHT31;52267;51.984;20.956;2022-08-19T00:44:59;19.70;81.60
65598;SHT31;52267;51.984;20.956;2022-08-19T00:47:26;19.67;81.61
65598;SHT31;52267;51.984;20.956;2022-08-19T00:49:55;19.67;81.49
65598;SHT31;52267;51.984;20.956;2022-08-19T00:52:31;19.65;81.43
65598;SHT31;52267;51.984;20.956;2022-08-19T00:55:00;19.62;81.47
65598;SHT31;52267;51.984;20.956;2022-08-19T00:57:32;19.57;81.53
65598;SHT31;52267;51.984;20.956;2022-08-19T01:00:10;19.53;81.61
65598;SHT31;52267;51.984;20.956;2022-08-19T01:02:42;19.51;81.50
65598;SHT31;52267;51.984;20.956;2022-08-19T01:05:11;19.51;81.35
65598;SHT31;52267;51.984;20.956;2022-08-19T01:07:44;19.47;81.39
65598;SHT31;52267;51.984;20.956;2022-08-19T01:10:13;19.41;81.51
65598;SHT31;52267;51.984;20.956;2022-08-19T01:12:45;19.38;81.59
65598;SHT31;52267;51.984;20.956;2022-08-19T01:15:14;19.39;81.42
65598;SHT31;52267;51.984;20.956;2022-08-19T01:17:46;19.37;81.37
65598;SHT31;52267;51.984;20.956;2022-08-19T01:20:16;19.34;81.39
65598;SHT31;52267;51.984;20.956;2022-08-19T01:22:48;19.30;81.48
65598;SHT31;52267;51.984;20.956;2022-08-19T01:25:46;19.24;81.60
65598;SHT31;52267;51.984;20.956;2022-08-19T01:28:18;19.22;81.66
65598;SHT31;52267;51.984;20.956;2022-08-19T01:30:48;19.22;81.50
65598;SHT31;52267;51.984;20.956;2022-08-19T01:33:15;19.20;81.51
65598;SHT31;52267;51.984;20.956;2022-08-19T01:35:43;19.12;81.65
65598;SHT31;52267;51.984;20.956;2022-08-19T01:38:18;19.08;81.69
65598;SHT31;52267;51.984;20.956;2022-08-19T01:40:52;19.08;81.62
65598;SHT31;52267;51.984;20.956;2022-08-19T01:43:19;19.06;81.53
65598;SHT31;52267;51.984;20.956;2022-08-19T01:45:47;19.02;81.60
65598;SHT31;52267;51.984;20.956;2022-08-19T01:48:14;18.97;81.73
65598;SHT31;52267;51.984;20.956;2022-08-19T01:50:41;18.94;81.81
65598;SHT31;52267;51.984;20.956;2022-08-19T01:53:09;18.91;81.83
65598;SHT31;52267;51.984;20.956;2022-08-19T01:55:38;18.88;81.93
65598;SHT31;52267;51.984;20.956;2022-08-19T01:58:15;18.88;81.87
65598;SHT31;52267;51.984;20.956;2022-08-19T02:00:46;18.86;81.83
65598;SHT31;52267;51.984;20.956;2022-08-19T02:03:14;18.84;81.81
65598;SHT31;52267;51.984;20.956;2022-08-19T02:05:42;18.81;81.93
65598;SHT31;52267;51.984;20.956;2022-08-19T02:08:10;18.81;82.01
65598;SHT31;52267;51.984;20.956;2022-08-19T02:10:42;18.79;82.12
65598;SHT31;52267;51.984;20.956;2022-08-19T02:13:10;18.77;82.27
65598;SHT31;52267;51.984;20.956;2022-08-19T02:15:38;18.74;82.51
65598;SHT31;52267;51.984;20.956;2022-08-19T02:18:06;18.74;82.52
65598;SHT31;52267;51.984;20.956;2022-08-19T02:20:34;18.74;82.60
65598;SHT31;52267;51.984;20.956;2022-08-19T02:23:03;18.72;82.70
65598;SHT31;52267;51.984;20.956;2022-08-19T02:25:30;18.73;82.66
65598;SHT31;52267;51.984;20.956;2022-08-19T02:27:57;18.75;82.80
65598;SHT31;52267;51.984;20.956;2022-08-19T02:30:24;18.78;83.09
65598;SHT31;52267;51.984;20.956;2022-08-19T02:32:51;18.78;83.24
65598;SHT31;52267;51.984;20.956;2022-08-19T02:35:19;18.81;83.35
65598;SHT31;52267;51.984;20.956;2022-08-19T02:37:47;18.81;83.45
65598;SHT31;52267;51.984;20.956;2022-08-19T02:40:33;18.85;83.85
65598;SHT31;52267;51.984;20.956;2022-08-19T02:43:04;18.89;83.82
65598;SHT31;52267;51.984;20.956;2022-08-19T02:45:35;18.94;84.09
65598;SHT31;52267;51.984;20.956;2022-08-19T02:48:06;18.99;84.16
65598;SHT31;52267;51.984;20.956;2022-08-19T02:50:38;19.05;84.27
65598;SHT31;52267;51.984;20.956;2022-08-19T02:53:06;19.10;84.46
65598;SHT31;52267;51.984;20.956;2022-08-19T02:55:34;19.14;84.46
65598;SHT31;52267;51.984;20.956;2022-08-19T02:58:02;19.19;84.55
65598;SHT31;52267;51.984;20.956;2022-08-19T03:00:29;19.23;84.71
65598;SHT31;52267;51.984;20.956;2022-08-19T03:02:56;19.28;84.87
65598;SHT31;52267;51.984;20.956;2022-08-19T03:05:23;19.33;84.91
65598;SHT31;52267;51.984;20.956;2022-08-19T03:07:50;19.37;84.80
65598;SHT31;52267;51.984;20.956;2022-08-19T03:10:16;19.42;85.02
65598;SHT31;52267;51.984;20.956;2022-08-19T03:12:43;19.45;84.88
65598;SHT31;52267;51.984;20.956;2022-08-19T03:15:12;19.48;84.99
65598;SHT31;52267;51.984;20.956;2022-08-19T03:17:39;19.50;84.96
65598;SHT31;52267;51.984;20.956;2022-08-19T03:20:06;19.53;84.81
65598;SHT31;52267;51.984;20.956;2022-08-19T03:22:33;19.54;84.84
65598;SHT31;52267;51.984;20.956;2022-08-19T03:25:00;19.56;85.02
65598;SHT31;52267;51.984;20.956;2022-08-19T03:27:28;19.57;85.01
65598;SHT31;52267;51.984;20.956;2022-08-19T03:29:55;19.57;84.99
65598;SHT31;52267;51.984;20.956;2022-08-19T03:32:22;19.58;84.96
65598;SHT31;52267;51.984;20.956;2022-08-19T03:34:49;19.58;84.97
65598;SHT31;52267;51.984;20.956;2022-08-19T03:37:17;19.59;84.88
65598;SHT31;52267;51.984;20.956;2022-08-19T03:39:44;19.60;84.90
65598;SHT31;52267;51.984;20.956;2022-08-19T03:42:11;19.61;84.95
65598;SHT31;52267;51.984;20.956;2022-08-19T03:44:38;19.62;85.00
65598;SHT31;52267;51.984;20.956;2022-08-19T03:47:05;19.63;84.88
65598;SHT31;52267;51.984;20.956;2022-08-19T03:49:32;19.65;84.86
65598;SHT31;52267;51.984;20.956;2022-08-19T03:52:01;19.65;84.85
65598;SHT31;52267;51.984;20.956;2022-08-19T03:54:31;19.65;84.90
65598;SHT31;52267;51.984;20.956;2022-08-19T03:56:58;19.65;84.93
65598;SHT31;52267;51.984;20.956;2022-08-19T03:59:26;19.67;84.89
65598;SHT31;52267;51.984;20.956;2022-08-19T04:01:57;19.68;84.91
65598;SHT31;52267;51.984;20.956;2022-08-19T04:04:28;19.70;84.93
65598;SHT31;52267;51.984;20.956;2022-08-19T04:06:55;19.73;84.78
65598;SHT31;52267;51.984;20.956;2022-08-19T04:09:23;19.76;84.76
65598;SHT31;52267;51.984;20.956;2022-08-19T04:11:52;19.76;84.83
65598;SHT31;52267;51.984;20.956;2022-08-19T04:14:21;19.78;84.95
65598;SHT31;52267;51.984;20.956;2022-08-19T04:16:55;19.82;85.00
65598;SHT31;52267;51.984;20.956;2022-08-19T04:19:23;19.88;84.80
65598;SHT31;52267;51.984;20.956;2022-08-19T04:21:51;19.94;84.77
65598;SHT31;52267;51.984;20.956;2022-08-19T04:24:20;20.01;84.70
65598;SHT31;52267;51.984;20.956;2022-08-19T04:26:48;20.09;84.67
65598;SHT31;52267;51.984;20.956;2022-08-19T04:29:19;20.16;84.51
65598;SHT31;52267;51.984;20.956;2022-08-19T04:31:51;20.22;84.48
65598;SHT31;52267;51.984;20.956;2022-08-19T04:34:21;20.29;84.30
65598;SHT31;52267;51.984;20.956;2022-08-19T04:36:55;20.37;84.21
65598;SHT31;52267;51.984;20.956;2022-08-19T04:39:26;20.47;84.07
65598;SHT31;52267;51.984;20.956;2022-08-19T04:42:15;20.56;84.15
65598;SHT31;52267;51.984;20.956;2022-08-19T04:45:04;20.64;84.00
65598;SHT31;52267;51.984;20.956;2022-08-19T04:47:33;20.70;83.86
65598;SHT31;52267;51.984;20.956;2022-08-19T04:50:00;20.75;83.65
65598;SHT31;52267;51.984;20.956;2022-08-19T04:52:27;20.80;83.59
65598;SHT31;52267;51.984;20.956;2022-08-19T04:54:54;20.83;83.58
65598;SHT31;52267;51.984;20.956;2022-08-19T04:57:21;20.86;83.46
65598;SHT31;52267;51.984;20.956;2022-08-19T04:59:48;20.90;83.32
65598;SHT31;52267;51.984;20.956;2022-08-19T05:02:15;20.93;83.35
65598;SHT31;52267;51.984;20.956;2022-08-19T05:04:42;20.97;83.37
65598;SHT31;52267;51.984;20.956;2022-08-19T05:07:09;21.02;83.34
65598;SHT31;52267;51.984;20.956;2022-08-19T05:09:36;21.06;83.19
65598;SHT31;52267;51.984;20.956;2022-08-19T05:12:04;21.12;83.11
65598;SHT31;52267;51.984;20.956;2022-08-19T05:14:32;21.19;83.14
65598;SHT31;52267;51.984;20.956;2022-08-19T05:17:00;21.25;83.00
65598;SHT31;52267;51.984;20.956;2022-08-19T05:19:27;21.32;82.84
65598;SHT31;52267;51.984;20.956;2022-08-19T05:22:17;21.39;82.83
65598;SHT31;52267;51.984;20.956;2022-08-19T05:25:02;21.45;82.70
65598;SHT31;52267;51.984;20.956;2022-08-19T05:27:36;21.50;82.63
65598;SHT31;52267;51.984;20.956;2022-08-19T05:30:03;21.54;82.68
65598;SHT31;52267;51.984;20.956;2022-08-19T05:32:31;21.55;82.65
65598;SHT31;52267;51.984;20.956;2022-08-19T05:34:58;21.54;82.58
65598;SHT31;52267;51.984;20.956;2022-08-19T05:37:25;21.54;82.48
65598;SHT31;52267;51.984;20.956;2022-08-19T05:39:53;21.56;82.43
65598;SHT31;52267;51.984;20.956;2022-08-19T05:42:21;21.55;82.39
65598;SHT31;52267;51.984;20.956;2022-08-19T05:44:49;21.58;82.37
65598;SHT31;52267;51.984;20.956;2022-08-19T05:47:17;21.60;82.34
65598;SHT31;52267;51.984;20.956;2022-08-19T05:49:46;21.65;82.27
65598;SHT31;52267;51.984;20.956;2022-08-19T05:52:15;21.71;82.24
65598;SHT31;52267;51.984;20.956;2022-08-19T05:54:43;21.78;82.22
65598;SHT31;52267;51.984;20.956;2022-08-19T05:57:11;21.86;82.11
65598;SHT31;52267;51.984;20.956;2022-08-19T05:59:38;21.94;81.97
65598;SHT31;52267;51.984;20.956;2022-08-19T06:02:05;22.03;81.84
65598;SHT31;52267;51.984;20.956;2022-08-19T06:04:33;22.08;81.91
65598;SHT31;52267;51.984;20.956;2022-08-19T06:07:00;22.14;81.90
65598;SHT31;52267;51.984;20.956;2022-08-19T06:09:28;22.17;81.87
65598;SHT31;52267;51.984;20.956;2022-08-19T06:11:56;22.20;81.96
65598;SHT31;52267;51.984;20.956;2022-08-19T06:14:28;22.26;81.84
65598;SHT31;52267;51.984;20.956;2022-08-19T06:16:57;22.33;81.73
65598;SHT31;52267;51.984;20.956;2022-08-19T06:19:26;22.42;81.66
65598;SHT31;52267;51.984;20.956;2022-08-19T06:21:56;22.51;81.59
65598;SHT31;52267;51.984;20.956;2022-08-19T06:24:25;22.60;81.44
65598;SHT31;52267;51.984;20.956;2022-08-19T06:26:55;22.66;81.31
65598;SHT31;52267;51.984;20.956;2022-08-19T06:29:24;22.70;81.26
65598;SHT31;52267;51.984;20.956;2022-08-19T06:31:54;22.76;81.26
65598;SHT31;52267;51.984;20.956;2022-08-19T06:34:24;22.84;81.13
65598;SHT31;52267;51.984;20.956;2022-08-19T06:36:54;22.92;80.99
65598;SHT31;52267;51.984;20.956;2022-08-19T06:39:24;23.01;80.98
65598;SHT31;52267;51.984;20.956;2022-08-19T06:41:55;23.12;80.96
65598;SHT31;52267;51.984;20.956;2022-08-19T06:44:25;23.24;80.72
65598;SHT31;52267;51.984;20.956;2022-08-19T06:46:55;23.37;80.51
65598;SHT31;52267;51.984;20.956;2022-08-19T06:49:22;23.51;80.42
65598;SHT31;52267;51.984;20.956;2022-08-19T06:51:51;23.67;80.18
65598;SHT31;52267;51.984;20.956;2022-08-19T06:54:18;23.84;79.94
65598;SHT31;52267;51.984;20.956;2022-08-19T06:56:46;24.04;79.73
65598;SHT31;52267;51.984;20.956;2022-08-19T06:59:14;24.25;79.22
65598;SHT31;52267;51.984;20.956;2022-08-19T07:01:45;24.44;78.68
65598;SHT31;52267;51.984;20.956;2022-08-19T07:04:15;24.61;78.17
65598;SHT31;52267;51.984;20.956;2022-08-19T07:06:45;24.80;77.80
65598;SHT31;52267;51.984;20.956;2022-08-19T07:09:14;25.00;77.57
65598;SHT31;52267;51.984;20.956;2022-08-19T07:11:48;25.19;76.93
65598;SHT31;52267;51.984;20.956;2022-08-19T07:14:21;25.41;76.66
65598;SHT31;52267;51.984;20.956;2022-08-19T07:16:52;25.61;76.00
65598;SHT31;52267;51.984;20.956;2022-08-19T07:19:23;25.78;75.23
65598;SHT31;52267;51.984;20.956;2022-08-19T07:21:53;25.96;74.66
65598;SHT31;52267;51.984;20.956;2022-08-19T07:24:22;26.14;74.11
65598;SHT31;52267;51.984;20.956;2022-08-19T07:26:52;26.33;74.08
65598;SHT31;52267;51.984;20.956;2022-08-19T07:29:22;26.53;73.68
65598;SHT31;52267;51.984;20.956;2022-08-19T07:31:50;26.79;73.59
65598;SHT31;52267;51.984;20.956;2022-08-19T07:34:18;27.05;73.29
65598;SHT31;52267;51.984;20.956;2022-08-19T07:36:45;27.29;72.44
65598;SHT31;52267;51.984;20.956;2022-08-19T07:39:14;27.46;72.08
65598;SHT31;52267;51.984;20.956;2022-08-19T07:41:48;27.57;71.48
65598;SHT31;52267;51.984;20.956;2022-08-19T07:44:17;27.74;71.26
65598;SHT31;52267;51.984;20.956;2022-08-19T07:46:48;27.88;70.81
65598;SHT31;52267;51.984;20.956;2022-08-19T07:49:20;28.06;70.62
65598;SHT31;52267;51.984;20.956;2022-08-19T07:51:48;28.21;70.35
65598;SHT31;52267;51.984;20.956;2022-08-19T07:54:20;28.38;69.15
65598;SHT31;52267;51.984;20.956;2022-08-19T07:56:50;28.58;69.00
65598;SHT31;52267;51.984;20.956;2022-08-19T07:59:17;28.84;68.58
65598;SHT31;52267;51.984;20.956;2022-08-19T08:01:46;28.99;67.66
65598;SHT31;52267;51.984;20.956;2022-08-19T08:04:14;29.09;67.05
65598;SHT31;52267;51.984;20.956;2022-08-19T08:06:59;29.32;66.12
65598;SHT31;52267;51.984;20.956;2022-08-19T08:09:44;29.50;65.77
65598;SHT31;52267;51.984;20.956;2022-08-19T08:12:13;29.60;65.20
65598;SHT31;52267;51.984;20.956;2022-08-19T08:14:53;29.72;64.85
65598;SHT31;52267;51.984;20.956;2022-08-19T08:17:24;29.77;63.93
65598;SHT31;52267;51.984;20.956;2022-08-19T08:19:54;29.73;62.15
65598;SHT31;52267;51.984;20.956;2022-08-19T08:22:22;29.89;63.35
65598;SHT31;52267;51.984;20.956;2022-08-19T08:25:10;30.02;62.23
65598;SHT31;52267;51.984;20.956;2022-08-19T08:27:43;30.09;63.11
65598;SHT31;52267;51.984;20.956;2022-08-19T08:30:14;30.25;62.70
65598;SHT31;52267;51.984;20.956;2022-08-19T08:32:50;30.36;61.36
65598;SHT31;52267;51.984;20.956;2022-08-19T08:35:19;30.39;61.19
65598;SHT31;52267;51.984;20.956;2022-08-19T08:37:50;30.51;61.66
65598;SHT31;52267;51.984;20.956;2022-08-19T08:40:26;30.67;60.77
65598;SHT31;52267;51.984;20.956;2022-08-19T08:46:01;30.63;58.70
65598;SHT31;52267;51.984;20.956;2022-08-19T08:49:06;30.76;59.34
65598;SHT31;52267;51.984;20.956;2022-08-19T08:54:50;30.94;58.13
65598;SHT31;52267;51.984;20.956;2022-08-19T09:00:29;31.25;57.94
65598;SHT31;52267;51.984;20.956;2022-08-19T09:03:00;31.34;56.88
65598;SHT31;52267;51.984;20.956;2022-08-19T09:05:38;31.39;57.10
65598;SHT31;52267;51.984;20.956;2022-08-19T09:11:04;31.77;56.45
65598;SHT31;52267;51.984;20.956;2022-08-19T09:13:41;31.89;55.99
65598;SHT31;52267;51.984;20.956;2022-08-19T09:16:17;32.11;55.87
65598;SHT31;52267;51.984;20.956;2022-08-19T09:18:48;32.19;54.24
65598;SHT31;52267;51.984;20.956;2022-08-19T09:21:24;32.19;53.74
65598;SHT31;52267;51.984;20.956;2022-08-19T09:23:53;32.13;53.67
65598;SHT31;52267;51.984;20.956;2022-08-19T09:26:21;32.12;54.03
65598;SHT31;52267;51.984;20.956;2022-08-19T09:28:50;32.33;54.16
65598;SHT31;52267;51.984;20.956;2022-08-19T09:31:21;32.42;54.08
65598;SHT31;52267;51.984;20.956;2022-08-19T09:33:50;32.46;53.84
65598;SHT31;52267;51.984;20.956;2022-08-19T09:36:20;32.51;53.62
65598;SHT31;52267;51.984;20.956;2022-08-19T09:38:49;32.58;53.78
65598;SHT31;52267;51.984;20.956;2022-08-19T09:41:18;32.74;53.74
65598;SHT31;52267;51.984;20.956;2022-08-19T09:43:49;32.89;52.88
65598;SHT31;52267;51.984;20.956;2022-08-19T09:46:25;32.93;53.26
65598;SHT31;52267;51.984;20.956;2022-08-19T09:48:56;33.10;52.89
65598;SHT31;52267;51.984;20.956;2022-08-19T09:51:26;33.19;53.20
65598;SHT31;52267;51.984;20.956;2022-08-19T09:53:58;33.26;52.75
65598;SHT31;52267;51.984;20.956;2022-08-19T09:56:29;33.22;51.94
65598;SHT31;52267;51.984;20.956;2022-08-19T09:59:00;33.28;52.59
65598;SHT31;52267;51.984;20.956;2022-08-19T10:01:30;33.44;52.22
65598;SHT31;52267;51.984;20.956;2022-08-19T10:03:59;33.53;52.26
65598;SHT31;52267;51.984;20.956;2022-08-19T10:06:29;33.60;51.72
65598;SHT31;52267;51.984;20.956;2022-08-19T10:08:59;33.68;51.72
65598;SHT31;52267;51.984;20.956;2022-08-19T10:11:26;33.78;51.58
65598;SHT31;52267;51.984;20.956;2022-08-19T10:13:54;33.85;51.86
65598;SHT31;52267;51.984;20.956;2022-08-19T10:16:21;33.98;51.80
65598;SHT31;52267;51.984;20.956;2022-08-19T10:18:50;34.12;51.07
65598;SHT31;52267;51.984;20.956;2022-08-19T10:21:19;34.12;50.51
65598;SHT31;52267;51.984;20.956;2022-08-19T10:23:53;34.01;49.84
65598;SHT31;52267;51.984;20.956;2022-08-19T10:26:33;34.03;50.92
65598;SHT31;52267;51.984;20.956;2022-08-19T10:29:04;34.09;49.87
65598;SHT31;52267;51.984;20.956;2022-08-19T10:31:32;34.16;50.81
65598;SHT31;52267;51.984;20.956;2022-08-19T10:34:00;34.29;50.38
65598;SHT31;52267;51.984;20.956;2022-08-19T10:36:32;34.35;50.39
65598;SHT31;52267;51.984;20.956;2022-08-19T10:39:03;34.38;50.10
65598;SHT31;52267;51.984;20.956;2022-08-19T10:41:36;34.38;49.52
65598;SHT31;52267;51.984;20.956;2022-08-19T10:44:06;34.35;49.10
65598;SHT31;52267;51.984;20.956;2022-08-19T10:46:37;34.42;50.00
65598;SHT31;52267;51.984;20.956;2022-08-19T10:49:09;34.33;49.47
65598;SHT31;52267;51.984;20.956;2022-08-19T10:51:38;34.16;49.55
65598;SHT31;52267;51.984;20.956;2022-08-19T10:54:25;34.17;50.17
65598;SHT31;52267;51.984;20.956;2022-08-19T10:57:10;34.33;49.82
65598;SHT31;52267;51.984;20.956;2022-08-19T10:59:37;34.37;49.67
65598;SHT31;52267;51.984;20.956;2022-08-19T11:02:05;34.42;49.48
65598;SHT31;52267;51.984;20.956;2022-08-19T11:04:36;34.38;49.43
65598;SHT31;52267;51.984;20.956;2022-08-19T11:07:05;34.34;49.50
65598;SHT31;52267;51.984;20.956;2022-08-19T11:09:36;34.48;49.82
65598;SHT31;52267;51.984;20.956;2022-08-19T11:12:07;34.49;49.65
65598;SHT31;52267;51.984;20.956;2022-08-19T11:14:36;34.43;48.93
65598;SHT31;52267;51.984;20.956;2022-08-19T11:17:04;34.34;49.12
65598;SHT31;52267;51.984;20.956;2022-08-19T11:19:32;34.32;49.66
65598;SHT31;52267;51.984;20.956;2022-08-19T11:21:59;34.38;49.39
65598;SHT31;52267;51.984;20.956;2022-08-19T11:24:30;34.49;49.09
65598;SHT31;52267;51.984;20.956;2022-08-19T11:27:00;34.50;48.70
65598;SHT31;52267;51.984;20.956;2022-08-19T11:29:35;34.44;48.82
65598;SHT31;52267;51.984;20.956;2022-08-19T11:32:08;34.29;47.77
65598;SHT31;52267;51.984;20.956;2022-08-19T11:34:36;34.25;48.76
65598;SHT31;52267;51.984;20.956;2022-08-19T11:37:04;34.29;48.93
65598;SHT31;52267;51.984;20.956;2022-08-19T11:39:33;34.28;49.46
65598;SHT31;52267;51.984;20.956;2022-08-19T11:42:03;34.29;48.60
65598;SHT31;52267;51.984;20.956;2022-08-19T11:44:52;34.21;48.81
65598;SHT31;52267;51.984;20.956;2022-08-19T11:47:20;34.10;48.56
65598;SHT31;52267;51.984;20.956;2022-08-19T11:49:47;34.02;49.01
65598;SHT31;52267;51.984;20.956;2022-08-19T11:52:14;33.97;48.85
65598;SHT31;52267;51.984;20.956;2022-08-19T11:54:41;33.97;48.80
65598;SHT31;52267;51.984;20.956;2022-08-19T11:57:08;33.90;48.24
65598;SHT31;52267;51.984;20.956;2022-08-19T11:59:35;33.75;48.34
65598;SHT31;52267;51.984;20.956;2022-08-19T12:02:04;33.69;48.76
65598;SHT31;52267;51.984;20.956;2022-08-19T12:04:32;33.68;48.51
65598;SHT31;52267;51.984;20.956;2022-08-19T12:06:58;33.68;48.75
65598;SHT31;52267;51.984;20.956;2022-08-19T12:09:25;33.68;48.81
65598;SHT31;52267;51.984;20.956;2022-08-19T12:11:52;33.68;49.16
65598;SHT31;52267;51.984;20.956;2022-08-19T12:14:19;33.81;48.88
65598;SHT31;52267;51.984;20.956;2022-08-19T12:16:46;33.84;48.78
65598;SHT31;52267;51.984;20.956;2022-08-19T12:19:13;33.94;48.70
65598;SHT31;52267;51.984;20.956;2022-08-19T12:21:40;33.97;48.27
65598;SHT31;52267;51.984;20.956;2022-08-19T12:24:07;33.94;48.29
65598;SHT31;52267;51.984;20.956;2022-08-19T12:26:34;33.92;48.49
65598;SHT31;52267;51.984;20.956;2022-08-19T12:29:02;33.93;47.87
65598;SHT31;52267;51.984;20.956;2022-08-19T12:31:30;33.92;48.26
65598;SHT31;52267;51.984;20.956;2022-08-19T12:33:58;33.91;47.96
65598;SHT31;52267;51.984;20.956;2022-08-19T12:36:25;33.91;47.81
65598;SHT31;52267;51.984;20.956;2022-08-19T12:38:52;33.78;47.96
65598;SHT31;52267;51.984;20.956;2022-08-19T12:41:19;33.70;48.12
65598;SHT31;52267;51.984;20.956;2022-08-19T12:43:48;33.74;48.10
65598;SHT31;52267;51.984;20.956;2022-08-19T12:46:16;33.73;47.69
65598;SHT31;52267;51.984;20.956;2022-08-19T12:48:45;33.71;47.83
65598;SHT31;52267;51.984;20.956;2022-08-19T12:51:14;33.72;47.83
65598;SHT31;52267;51.984;20.956;2022-08-19T12:53:44;33.69;47.59
65598;SHT31;52267;51.984;20.956;2022-08-19T12:56:12;33.68;47.91
65598;SHT31;52267;51.984;20.956;2022-08-19T12:58:41;33.68;47.50
65598;SHT31;52267;51.984;20.956;2022-08-19T13:01:10;33.66;47.66
65598;SHT31;52267;51.984;20.956;2022-08-19T13:03:39;33.67;47.44
65598;SHT31;52267;51.984;20.956;2022-08-19T13:06:07;33.74;48.05
65598;SHT31;52267;51.984;20.956;2022-08-19T13:08:37;33.78;47.89
65598;SHT31;52267;51.984;20.956;2022-08-19T13:11:12;33.83;47.41
65598;SHT31;52267;51.984;20.956;2022-08-19T13:13:46;33.83;47.48
65598;SHT31;52267;51.984;20.956;2022-08-19T13:16:16;33.79;47.34
65598;SHT31;52267;51.984;20.956;2022-08-19T13:18:45;33.78;47.56
65598;SHT31;52267;51.984;20.956;2022-08-19T13:21:23;33.76;47.46
65598;SHT31;52267;51.984;20.956;2022-08-19T13:23:54;33.71;47.54
65598;SHT31;52267;51.984;20.956;2022-08-19T13:26:21;33.73;47.42
65598;SHT31;52267;51.984;20.956;2022-08-19T13:28:48;33.74;47.56
65598;SHT31;52267;51.984;20.956;2022-08-19T13:31:34;33.76;47.14
65598;SHT31;52267;51.984;20.956;2022-08-19T13:34:28;33.72;47.34
65598;SHT31;52267;51.984;20.956;2022-08-19T13:37:00;33.71;47.52
65598;SHT31;52267;51.984;20.956;2022-08-19T13:39:30;33.68;47.28
65598;SHT31;52267;51.984;20.956;2022-08-19T13:41:59;33.67;47.44
65598;SHT31;52267;51.984;20.956;2022-08-19T13:44:27;33.63;46.90
65598;SHT31;52267;51.984;20.956;2022-08-19T13:47:01;33.63;47.60
65598;SHT31;52267;51.984;20.956;2022-08-19T13:49:34;33.75;47.33
65598;SHT31;52267;51.984;20.956;2022-08-19T13:52:03;33.84;47.68
65598;SHT31;52267;51.984;20.956;2022-08-19T13:54:31;33.85;47.12
65598;SHT31;52267;51.984;20.956;2022-08-19T13:56:58;33.84;47.23
65598;SHT31;52267;51.984;20.956;2022-08-19T13:59:25;33.81;46.58
65598;SHT31;52267;51.984;20.956;2022-08-19T14:01:52;33.82;46.99
65598;SHT31;52267;51.984;20.956;2022-08-19T14:04:24;33.86;46.36
65598;SHT31;52267;51.984;20.956;2022-08-19T14:06:51;33.83;46.45
65598;SHT31;52267;51.984;20.956;2022-08-19T14:09:18;33.77;46.14
65598;SHT31;52267;51.984;20.956;2022-08-19T14:11:44;33.74;46.43
65598;SHT31;52267;51.984;20.956;2022-08-19T14:14:12;33.69;45.99
65598;SHT31;52267;51.984;20.956;2022-08-19T14:16:39;33.59;45.76
65598;SHT31;52267;51.984;20.956;2022-08-19T14:19:06;33.47;45.94
65598;SHT31;52267;51.984;20.956;2022-08-19T14:21:33;33.47;45.88
65598;SHT31;52267;51.984;20.956;2022-08-19T14:24:02;33.41;45.59
65598;SHT31;52267;51.984;20.956;2022-08-19T14:26:29;33.33;45.76
65598;SHT31;52267;51.984;20.956;2022-08-19T14:28:57;33.26;45.87
65598;SHT31;52267;51.984;20.956;2022-08-19T14:31:24;33.23;45.51
65598;SHT31;52267;51.984;20.956;2022-08-19T14:33:52;33.27;45.91
65598;SHT31;52267;51.984;20.956;2022-08-19T14:36:19;33.36;45.94
65598;SHT31;52267;51.984;20.956;2022-08-19T14:38:47;33.40;45.59
65598;SHT31;52267;51.984;20.956;2022-08-19T14:41:16;33.36;45.98
65598;SHT31;52267;51.984;20.956;2022-08-19T14:43:47;33.39;45.64
65598;SHT31;52267;51.984;20.956;2022-08-19T14:46:18;33.38;45.15
65598;SHT31;52267;51.984;20.956;2022-08-19T14:48:48;33.32;45.48
65598;SHT31;52267;51.984;20.956;2022-08-19T14:51:16;33.30;45.04
65598;SHT31;52267;51.984;20.956;2022-08-19T14:53:45;33.21;45.45
65598;SHT31;52267;51.984;20.956;2022-08-19T14:56:16;33.15;45.80
65598;SHT31;52267;51.984;20.956;2022-08-19T14:58:46;33.10;45.77
65598;SHT31;52267;51.984;20.956;2022-08-19T15:01:13;33.08;45.83
65598;SHT31;52267;51.984;20.956;2022-08-19T15:03:40;33.01;45.89
65598;SHT31;52267;51.984;20.956;2022-08-19T15:06:07;32.95;45.53
65598;SHT31;52267;51.984;20.956;2022-08-19T15:08:36;32.87;45.41
65598;SHT31;52267;51.984;20.956;2022-08-19T15:11:15;32.82;45.43
65598;SHT31;52267;51.984;20.956;2022-08-19T15:13:46;32.80;45.48
65598;SHT31;52267;51.984;20.956;2022-08-19T15:16:14;32.78;45.43
65598;SHT31;52267;51.984;20.956;2022-08-19T15:18:41;32.76;45.77
65598;SHT31;52267;51.984;20.956;2022-08-19T15:21:11;32.68;45.25
65598;SHT31;52267;51.984;20.956;2022-08-19T15:23:41;32.62;45.56
65598;SHT31;52267;51.984;20.956;2022-08-19T15:26:11;32.59;46.39
65598;SHT31;52267;51.984;20.956;2022-08-19T15:28:38;32.59;46.58
65598;SHT31;52267;51.984;20.956;2022-08-19T15:31:05;32.62;46.89
65598;SHT31;52267;51.984;20.956;2022-08-19T15:33:33;32.56;47.11
65598;SHT31;52267;51.984;20.956;2022-08-19T15:36:06;32.49;47.54
65598;SHT31;52267;51.984;20.956;2022-08-19T15:38:33;32.38;47.45
65598;SHT31;52267;51.984;20.956;2022-08-19T15:41:02;32.30;47.22
65598;SHT31;52267;51.984;20.956;2022-08-19T15:43:53;32.24;47.39